createdAt,value
2022-10-23T00:00:00.700Z,101302.97
2022-10-23T00:02:57.458Z,101287.75
2022-10-23T00:05:54.860Z,101287.78
2022-10-23T00:08:51.772Z,101280.00
2022-10-23T00:11:49.965Z,101277.00
2022-10-23T00:14:46.811Z,101285.53
2022-10-23T00:17:43.844Z,101274.69
2022-10-23T00:20:40.490Z,101273.94
2022-10-23T00:23:37.915Z,101273.47
2022-10-23T00:26:34.716Z,101267.44
2022-10-23T00:29:31.606Z,101274.34
2022-10-23T00:32:29.151Z,101275.16
2022-10-23T00:35:25.984Z,101286.88
2022-10-23T00:38:22.701Z,101279.88
2022-10-23T00:41:22.482Z,101270.66
2022-10-23T00:44:22.192Z,101271.91
2022-10-23T00:47:19.979Z,101283.75
2022-10-23T00:50:17.198Z,101267.44
2022-10-23T00:53:14.661Z,101277.78
2022-10-23T00:56:12.148Z,101265.34
2022-10-23T00:59:08.896Z,101275.31
2022-10-23T01:02:05.770Z,101273.88
2022-10-23T01:05:03.154Z,101275.06
2022-10-23T01:08:02.926Z,101273.88
2022-10-23T01:11:15.279Z,101274.59
2022-10-23T01:14:16.089Z,101277.88
2022-10-23T01:17:15.084Z,101272.50
2022-10-23T01:20:38.335Z,101262.16
2022-10-23T01:23:45.031Z,101260.50
2022-10-23T01:26:59.753Z,101254.25
2022-10-23T01:30:14.227Z,101256.16
2022-10-23T01:33:17.537Z,101258.63
2022-10-23T01:36:17.645Z,101259.00
2022-10-23T01:39:36.128Z,101273.09
2022-10-23T01:42:41.973Z,101276.63
2022-10-23T01:45:41.734Z,101273.38
2022-10-23T01:48:46.207Z,101276.94
2022-10-23T01:51:45.965Z,101274.84
2022-10-23T01:54:43.411Z,101271.06
2022-10-23T01:57:40.805Z,101279.00
2022-10-23T02:00:37.957Z,101265.53
2022-10-23T02:03:35.398Z,101261.13
2022-10-23T02:06:33.082Z,101254.47
2022-10-23T02:09:30.047Z,101241.50
2022-10-23T02:12:53.151Z,101242.31
2022-10-23T02:15:52.383Z,101238.19
2022-10-23T02:19:06.720Z,101226.03
2022-10-23T02:22:17.071Z,101229.72
2022-10-23T02:25:18.705Z,101234.72
2022-10-23T02:28:19.924Z,101221.09
2022-10-23T02:31:18.775Z,101218.38
2022-10-23T02:34:15.487Z,101210.88
2022-10-23T02:37:12.844Z,101214.44
2022-10-23T02:40:10.327Z,101217.28
2022-10-23T02:43:21.056Z,101215.38
2022-10-23T02:46:23.190Z,101212.13
2022-10-23T02:49:19.926Z,101189.69
2022-10-23T02:52:24.019Z,101182.56
2022-10-23T02:55:27.401Z,101179.03
2022-10-23T02:58:43.417Z,101180.84
2022-10-23T03:01:52.113Z,101192.63
2022-10-23T03:04:48.813Z,101194.84
2022-10-23T03:07:46.016Z,101189.72
2022-10-23T03:10:43.305Z,101182.22
2022-10-23T03:13:41.042Z,101184.75
2022-10-23T03:16:38.001Z,101181.94
2022-10-23T03:19:34.771Z,101169.13
2022-10-23T03:22:34.440Z,101175.72
2022-10-23T03:25:31.920Z,101180.75
2022-10-23T03:28:29.890Z,101178.09
2022-10-23T03:31:28.833Z,101171.31
2022-10-23T03:34:28.704Z,101168.81
2022-10-23T03:37:26.143Z,101160.84
2022-10-23T03:40:23.114Z,101162.13
2022-10-23T03:43:20.965Z,101164.75
2022-10-23T03:46:17.923Z,101150.13
2022-10-23T03:49:14.657Z,101161.19
2022-10-23T03:52:14.187Z,101165.59
2022-10-23T03:55:11.592Z,101170.28
2022-10-23T03:58:08.988Z,101169.81
2022-10-23T04:01:06.075Z,101157.78
2022-10-23T04:04:02.903Z,101157.22
2022-10-23T04:07:00.811Z,101149.53
2022-10-23T04:09:58.728Z,101144.25
2022-10-23T04:12:56.126Z,101154.31
2022-10-23T04:15:53.613Z,101156.41
2022-10-23T04:18:51.052Z,101158.72
2022-10-23T04:21:47.861Z,101153.69
2022-10-23T04:24:46.786Z,101158.63
2022-10-23T04:27:48.278Z,101142.94
2022-10-23T04:30:44.924Z,101133.09
2022-10-23T04:33:43.023Z,101142.69
2022-10-23T04:36:42.856Z,101135.78
2022-10-23T04:39:40.731Z,101144.94
2022-10-23T04:42:38.225Z,101141.47
2022-10-23T04:45:35.066Z,101134.41
2022-10-23T04:48:32.272Z,101144.69
2022-10-23T04:51:48.858Z,101139.47
2022-10-23T04:55:04.644Z,101135.00
2022-10-23T04:58:22.634Z,101147.16
2022-10-23T05:01:20.948Z,101139.47
2022-10-23T05:04:19.386Z,101126.75
2022-10-23T05:07:35.748Z,101119.13
2022-10-23T05:10:52.887Z,101120.31
2022-10-23T05:13:49.811Z,101111.50
2022-10-23T05:16:50.153Z,101114.34
2022-10-23T05:19:50.675Z,101110.53
2022-10-23T05:22:48.982Z,101108.69
2022-10-23T05:25:46.833Z,101103.91
2022-10-23T05:28:47.309Z,101101.34
2022-10-23T05:31:47.531Z,101094.19
2022-10-23T05:34:45.083Z,101096.06
2022-10-23T05:37:43.073Z,101092.22
2022-10-23T05:40:53.424Z,101084.44
2022-10-23T05:43:51.868Z,101093.75
2022-10-23T05:47:07.617Z,101091.41
2022-10-23T05:50:31.119Z,101085.81
2022-10-23T05:53:47.061Z,101085.47
2022-10-23T05:57:02.278Z,101083.09
2022-10-23T06:00:12.834Z,101079.91
2022-10-23T06:03:12.025Z,101084.13
2022-10-23T06:06:13.140Z,101075.88
2022-10-23T06:09:15.829Z,101072.81
2022-10-23T06:12:13.144Z,101073.63
2022-10-23T06:15:13.150Z,101069.97
2022-10-23T06:18:34.044Z,101066.66
2022-10-23T06:21:38.886Z,101070.72
2022-10-23T06:24:36.102Z,101059.56
2022-10-23T06:27:34.868Z,101070.53
2022-10-23T06:30:34.333Z,101072.16
2022-10-23T06:33:31.423Z,101070.06
2022-10-23T06:36:28.257Z,101070.63
2022-10-23T06:39:41.445Z,101073.56
2022-10-23T06:43:05.299Z,101077.19
2022-10-23T06:46:40.984Z,101081.06
2022-10-23T06:49:56.469Z,101084.25
2022-10-23T06:52:54.441Z,101085.41
2022-10-23T06:55:55.344Z,101089.28
2022-10-23T06:58:52.902Z,101082.38
2022-10-23T07:01:50.589Z,101097.38
2022-10-23T07:04:48.181Z,101083.31
2022-10-23T07:07:49.149Z,101091.91
2022-10-23T07:10:52.213Z,101096.41
2022-10-23T07:13:50.215Z,101089.19
2022-10-23T07:16:47.923Z,101096.25
2022-10-23T07:19:46.941Z,101103.91
2022-10-23T07:22:51.308Z,101099.81
2022-10-23T07:25:54.905Z,101102.72
2022-10-23T07:28:55.258Z,101096.38
2022-10-23T07:31:53.913Z,101088.09
2022-10-23T07:35:09.431Z,101086.16
2022-10-23T07:38:09.307Z,101076.09
2022-10-23T07:41:12.633Z,101085.16
2022-10-23T07:44:10.084Z,101087.97
2022-10-23T07:47:07.367Z,101082.03
2022-10-23T07:50:04.626Z,101082.75
2022-10-23T07:53:01.903Z,101076.16
2022-10-23T07:56:22.540Z,101074.16
2022-10-23T07:59:42.171Z,101062.09
2022-10-23T08:02:41.405Z,101056.53
2022-10-23T08:05:41.117Z,101054.28
2022-10-23T08:08:38.913Z,101052.22
2022-10-23T08:11:36.705Z,101060.91
2022-10-23T08:14:36.433Z,101067.69
2022-10-23T08:17:33.420Z,101072.16
2022-10-23T08:20:46.119Z,101065.84
2022-10-23T08:23:44.418Z,101064.38
2022-10-23T08:26:41.391Z,101066.91
2022-10-23T08:29:40.265Z,101057.06
2022-10-23T08:32:37.073Z,101067.38
2022-10-23T08:35:37.800Z,101072.34
2022-10-23T08:38:36.193Z,101048.19
2022-10-23T08:41:44.356Z,101037.34
2022-10-23T08:44:50.671Z,101049.25
2022-10-23T08:47:51.167Z,101054.25
2022-10-23T08:51:31.747Z,101046.63
2022-10-23T08:54:53.588Z,101050.19
2022-10-23T08:58:10.942Z,101037.94
2022-10-23T09:01:28.536Z,101032.59
2022-10-23T09:04:26.380Z,101036.91
2022-10-23T09:07:45.653Z,101042.88
2022-10-23T09:10:52.025Z,101037.81
2022-10-23T09:14:04.600Z,101035.75
2022-10-23T09:20:25.865Z,101031.09
2022-10-23T09:23:23.997Z,101010.44
2022-10-23T09:26:21.239Z,101016.31
2022-10-23T09:29:32.851Z,101016.13
2022-10-23T09:32:34.449Z,101017.56
2022-10-23T09:35:31.395Z,101008.81
2022-10-23T09:38:51.327Z,100995.03
2022-10-23T09:41:48.212Z,100997.81
2022-10-23T09:44:49.678Z,100993.47
2022-10-23T09:47:47.443Z,100992.72
2022-10-23T09:50:53.070Z,100996.19
2022-10-23T09:53:55.444Z,100996.28
2022-10-23T09:56:52.926Z,100980.66
2022-10-23T09:59:54.114Z,100974.88
2022-10-23T10:02:55.398Z,100976.81
2022-10-23T10:06:04.151Z,100979.13
2022-10-23T10:09:08.103Z,100972.72
2022-10-23T10:12:19.713Z,100964.50
2022-10-23T10:15:22.271Z,100958.06
2022-10-23T10:18:57.946Z,100961.81
2022-10-23T10:22:16.802Z,100956.50
2022-10-23T10:25:38.795Z,100953.03
2022-10-23T10:28:58.978Z,100948.00
2022-10-23T10:32:14.437Z,100948.50
2022-10-23T10:35:20.549Z,100946.59
2022-10-23T10:38:46.649Z,100940.16
2022-10-23T10:41:45.459Z,100946.63
2022-10-23T10:45:01.654Z,100941.97
2022-10-23T10:48:36.225Z,100934.13
2022-10-23T10:52:08.038Z,100933.41
2022-10-23T10:55:23.433Z,100931.88
2022-10-23T10:58:43.580Z,100918.81
2022-10-23T11:01:49.333Z,100920.56
2022-10-23T11:04:55.895Z,100908.97
2022-10-23T11:07:56.188Z,100897.16
2022-10-23T11:10:55.347Z,100889.50
2022-10-23T11:13:53.865Z,100875.97
2022-10-23T11:17:15.162Z,100878.44
2022-10-23T11:20:30.303Z,100876.22
2022-10-23T11:23:32.975Z,100858.19
2022-10-23T11:26:51.954Z,100856.50
2022-10-23T11:30:01.650Z,100850.88
2022-10-23T11:33:04.439Z,100832.91
2022-10-23T11:36:11.186Z,100830.50
2022-10-23T11:39:33.984Z,100830.97
2022-10-23T11:42:41.523Z,100823.34
2022-10-23T11:45:40.155Z,100822.63
2022-10-23T11:48:42.558Z,100807.16
2022-10-23T11:51:40.059Z,100786.72
2022-10-23T11:54:37.255Z,100797.03
2022-10-23T11:57:34.373Z,100788.97
2022-10-23T12:00:35.478Z,100795.81
2022-10-23T12:04:13.567Z,100778.09
2022-10-23T12:07:36.897Z,100784.63
2022-10-23T12:10:46.890Z,100782.31
2022-10-23T12:13:46.302Z,100775.78
2022-10-23T12:16:43.656Z,100758.97
2022-10-23T12:19:47.828Z,100754.50
2022-10-23T12:23:00.529Z,100737.84
2022-10-23T12:26:18.064Z,100720.25
2022-10-23T12:29:41.167Z,100720.56
2022-10-23T12:32:57.305Z,100724.22
2022-10-23T12:36:02.779Z,100713.22
2022-10-23T12:39:01.136Z,100712.47
2022-10-23T12:41:59.567Z,100702.41
2022-10-23T12:45:02.379Z,100715.88
2022-10-23T12:47:59.592Z,100694.22
2022-10-23T12:50:56.522Z,100695.53
2022-10-23T12:53:53.762Z,100673.13
2022-10-23T12:56:50.637Z,100664.16
2022-10-23T12:59:47.045Z,100659.25
2022-10-23T13:02:44.643Z,100664.16
2022-10-23T13:05:41.178Z,100667.00
2022-10-23T13:08:43.857Z,100660.47
2022-10-23T13:12:33.008Z,100645.81
2022-10-23T13:15:44.175Z,100647.41
2022-10-23T13:18:41.902Z,100643.72
2022-10-23T13:21:39.417Z,100639.69
2022-10-23T13:24:36.439Z,100628.28
2022-10-23T13:27:33.978Z,100616.47
2022-10-23T13:30:33.732Z,100610.75
2022-10-23T13:33:40.277Z,100611.19
2022-10-23T13:36:39.634Z,100617.69
2022-10-23T13:39:36.664Z,100613.19
2022-10-23T13:42:33.711Z,100610.75
2022-10-23T13:45:30.372Z,100613.59
2022-10-23T13:48:27.367Z,100600.16
2022-10-23T13:51:28.651Z,100576.13
2022-10-23T13:57:29.776Z,100531.28
2022-10-23T14:00:27.549Z,100525.19
2022-10-23T14:03:25.087Z,100520.31
2022-10-23T14:06:22.377Z,100517.44
2022-10-23T14:09:19.355Z,100528.03
2022-10-23T14:12:16.315Z,100541.09
2022-10-23T14:15:13.300Z,100539.84
2022-10-23T14:18:10.584Z,100526.81
2022-10-23T14:21:08.131Z,100517.03
2022-10-23T14:24:05.822Z,100519.06
2022-10-23T14:27:02.264Z,100508.06
2022-10-23T14:29:59.817Z,100508.09
2022-10-23T14:32:56.127Z,100522.75
2022-10-23T14:35:53.579Z,100515.81
2022-10-23T14:38:55.451Z,100526.00
2022-10-23T14:41:52.500Z,100534.16
2022-10-23T14:44:50.030Z,100519.47
2022-10-23T14:47:47.480Z,100530.09
2022-10-23T14:50:45.967Z,100518.25
2022-10-23T14:53:43.371Z,100510.06
2022-10-23T14:56:40.914Z,100509.66
2022-10-23T14:59:38.611Z,100504.75
2022-10-23T15:02:35.624Z,100494.16
2022-10-23T15:05:32.555Z,100493.34
2022-10-23T15:08:29.790Z,100490.91
2022-10-23T15:11:26.660Z,100482.00
2022-10-23T15:14:23.256Z,100476.28
2022-10-23T15:17:20.362Z,100479.56
2022-10-23T15:20:17.323Z,100462.44
2022-10-23T15:23:14.294Z,100462.41
2022-10-23T15:26:20.751Z,100462.81
2022-10-23T15:29:17.739Z,100459.59
2022-10-23T15:32:14.366Z,100460.00
2022-10-23T15:35:11.379Z,100453.88
2022-10-23T15:38:08.691Z,100460.78
2022-10-23T15:41:14.375Z,100449.78
2022-10-23T15:44:13.924Z,100443.25
2022-10-23T15:47:11.685Z,100438.38
2022-10-23T15:50:09.010Z,100422.50
2022-10-23T15:53:06.734Z,100417.63
2022-10-23T15:56:03.985Z,100410.25
2022-10-23T15:59:01.557Z,100411.06
2022-10-23T16:01:58.830Z,100397.22
2022-10-23T16:04:56.684Z,100391.09
2022-10-23T16:07:53.606Z,100391.53
2022-10-23T16:10:50.843Z,100394.78
2022-10-23T16:13:47.832Z,100391.53
2022-10-23T16:16:44.781Z,100385.41
2022-10-23T16:19:41.856Z,100383.78
2022-10-23T16:22:41.369Z,100373.59
2022-10-23T16:25:41.687Z,100374.81
2022-10-23T16:28:38.865Z,100369.13
2022-10-23T16:31:35.699Z,100356.91
2022-10-23T16:34:32.493Z,100365.44
2022-10-23T16:37:29.534Z,100364.25
2022-10-23T16:40:34.492Z,100376.88
2022-10-23T16:44:08.838Z,100375.22
2022-10-23T16:47:17.608Z,100369.53
2022-10-23T16:50:15.601Z,100363.81
2022-10-23T16:53:12.495Z,100363.41
2022-10-23T16:56:10.250Z,100359.38
2022-10-23T16:59:07.459Z,100358.94
2022-10-23T17:02:04.635Z,100372.78
2022-10-23T17:05:01.558Z,100384.16
2022-10-23T17:07:58.423Z,100381.31
2022-10-23T17:11:12.947Z,100381.31
2022-10-23T17:14:15.107Z,100370.31
2022-10-23T17:17:13.644Z,100379.69
2022-10-23T17:20:11.390Z,100371.94
2022-10-23T17:23:08.943Z,100373.97
2022-10-23T17:26:07.996Z,100356.88
2022-10-23T17:29:05.981Z,100355.66
2022-10-23T17:32:02.848Z,100358.94
2022-10-23T17:34:59.407Z,100357.72
2022-10-23T17:37:57.027Z,100377.69
2022-10-23T17:40:54.474Z,100385.00
2022-10-23T17:43:51.855Z,100382.59
2022-10-23T17:46:55.103Z,100385.00
2022-10-23T17:49:52.608Z,100406.19
2022-10-23T17:52:49.811Z,100405.78
2022-10-23T17:55:46.811Z,100396.81
2022-10-23T17:58:43.446Z,100402.94
2022-10-23T18:01:42.817Z,100389.06
2022-10-23T18:04:39.672Z,100400.06
2022-10-23T18:07:36.420Z,100407.81
2022-10-23T18:10:35.503Z,100413.50
2022-10-23T18:13:33.297Z,100403.31
2022-10-23T18:16:30.904Z,100422.88
2022-10-23T18:19:28.245Z,100410.25
2022-10-23T18:22:25.720Z,100407.00
2022-10-23T18:25:22.644Z,100401.72
2022-10-23T18:28:20.362Z,100407.00
2022-10-23T18:31:17.904Z,100391.09
2022-10-23T18:34:20.067Z,100356.91
2022-10-23T18:37:16.686Z,100308.03
2022-10-23T18:40:13.700Z,100266.09
2022-10-23T18:43:14.947Z,100285.69
2022-10-23T18:46:16.864Z,100288.13
2022-10-23T18:49:13.951Z,100302.75
2022-10-23T18:52:10.927Z,100301.13
2022-10-23T18:55:08.315Z,100310.88
2022-10-23T18:58:05.364Z,100301.91
2022-10-23T19:01:03.087Z,100310.03
2022-10-23T19:04:00.961Z,100303.53
2022-10-23T19:06:57.823Z,100306.81
2022-10-23T19:09:55.269Z,100308.41
2022-10-23T19:12:52.537Z,100314.97
2022-10-23T19:15:49.759Z,100295.00
2022-10-23T19:18:49.371Z,100304.31
2022-10-23T19:21:46.512Z,100301.09
2022-10-23T19:25:17.487Z,100310.84
2022-10-23T19:28:14.514Z,100301.53
2022-10-23T19:31:12.172Z,100313.72
2022-10-23T19:34:09.828Z,100326.78
2022-10-23T19:37:06.899Z,100321.47
2022-10-23T19:40:06.675Z,100318.63
2022-10-23T19:43:03.712Z,100308.03
2022-10-23T19:46:06.515Z,100306.81
2022-10-23T19:49:06.583Z,100309.69
2022-10-23T19:52:04.236Z,100300.34
2022-10-23T19:55:03.249Z,100311.31
2022-10-23T19:58:00.908Z,100307.25
2022-10-23T20:00:58.032Z,100305.59
2022-10-23T20:03:57.705Z,100314.16
2022-10-23T20:06:55.928Z,100315.00
2022-10-23T20:09:52.854Z,100314.97
2022-10-23T20:12:56.838Z,100303.13
2022-10-23T20:16:05.040Z,100310.88
2022-10-23T20:19:02.675Z,100303.97
2022-10-23T20:22:00.758Z,100297.44
2022-10-23T20:24:57.931Z,100302.31
2022-10-23T20:27:54.867Z,100302.34
2022-10-23T20:30:51.827Z,100303.13
2022-10-23T20:33:48.985Z,100292.16
2022-10-23T20:36:47.545Z,100287.66
2022-10-23T20:39:44.815Z,100294.56
2022-10-23T20:42:41.594Z,100309.16
2022-10-23T20:45:39.062Z,100310.38
2022-10-23T20:48:43.038Z,100320.94
2022-10-23T20:51:39.795Z,100330.31
2022-10-23T20:54:38.185Z,100322.19
2022-10-23T20:57:35.950Z,100329.47
2022-10-23T21:00:32.863Z,100320.97
2022-10-23T21:03:30.189Z,100313.66
2022-10-23T21:06:33.943Z,100317.28
2022-10-23T21:09:38.290Z,100332.75
2022-10-23T21:12:35.891Z,100334.00
2022-10-23T21:15:32.592Z,100339.28
2022-10-23T21:18:44.893Z,100336.81
2022-10-23T21:21:43.498Z,100325.06
2022-10-23T21:24:40.570Z,100337.69
2022-10-23T21:27:37.976Z,100334.47
2022-10-23T21:30:35.481Z,100328.34
2022-10-23T21:33:33.087Z,100331.59
2022-10-23T21:36:31.036Z,100353.97
2022-10-23T21:39:28.586Z,100348.28
2022-10-23T21:42:26.143Z,100342.19
2022-10-23T21:45:22.914Z,100342.59
2022-10-23T21:48:20.119Z,100343.44
2022-10-23T21:51:24.002Z,100344.25
2022-10-23T21:54:20.836Z,100338.13
2022-10-23T21:57:17.564Z,100343.41
2022-10-23T22:00:16.493Z,100354.81
2022-10-23T22:03:13.814Z,100351.19
2022-10-23T22:06:21.686Z,100353.66
2022-10-23T22:09:19.873Z,100348.38
2022-10-23T22:12:16.905Z,100335.75
2022-10-23T22:15:13.707Z,100338.59
2022-10-23T22:18:10.658Z,100342.25
2022-10-23T22:21:09.460Z,100325.97
2022-10-23T22:24:06.790Z,100330.44
2022-10-23T22:27:04.047Z,100339.41
2022-10-23T22:30:03.770Z,100328.84
2022-10-23T22:33:00.905Z,100334.50
2022-10-23T22:36:02.237Z,100332.06
2022-10-23T22:38:59.263Z,100337.78
2022-10-23T22:41:55.966Z,100344.25
2022-10-23T22:44:52.735Z,100345.91
2022-10-23T22:47:50.063Z,100359.34
2022-10-23T22:50:47.197Z,100355.69
2022-10-23T22:53:43.760Z,100346.31
2022-10-23T22:56:42.496Z,100340.19
2022-10-23T22:59:40.084Z,100335.31
2022-10-23T23:02:36.845Z,100342.25
2022-10-23T23:05:33.954Z,100337.78
2022-10-23T23:08:30.726Z,100353.63
2022-10-23T23:11:27.967Z,100344.69
2022-10-23T23:14:24.892Z,100342.25
2022-10-23T23:17:22.651Z,100348.34
2022-10-23T23:20:19.785Z,100347.94
2022-10-23T23:23:17.160Z,100351.59
2022-10-23T23:26:14.165Z,100355.22
2022-10-23T23:29:10.733Z,100354.81
2022-10-23T23:32:07.931Z,100367.00
2022-10-23T23:35:05.450Z,100370.28
2022-10-23T23:38:03.142Z,100357.69
2022-10-23T23:40:59.866Z,100367.88
2022-10-23T23:43:57.528Z,100371.13
2022-10-23T23:46:55.071Z,100364.59
2022-10-23T23:49:52.004Z,100370.69
2022-10-23T23:52:49.138Z,100376.78
2022-10-23T23:55:46.181Z,100367.03
2022-10-23T23:58:42.910Z,100365.81
